sensor_id;sensor_type;location;lat;lon;timestamp;pressure;altitude;pressure_sealevel;temperature;humidity
9059;BME280;4564;42.034;25.834;2024-02-15T00:01:18;100575.41;;;8.73;89.37
9059;BME280;4564;42.034;25.834;2024-02-15T00:03:45;100575.22;;;8.75;89.13
9059;BME280;4564;42.034;25.834;2024-02-15T00:06:12;100568.97;;;8.66;88.27
9059;BME280;4564;42.034;25.834;2024-02-15T00:08:40;100585.53;;;8.63;88.98
9059;BME280;4564;42.034;25.834;2024-02-15T00:11:06;100580.28;;;8.62;89.16
9059;BME280;4564;42.034;25.834;2024-02-15T00:13:34;100575.22;;;8.51;89.53
9059;BME280;4564;42.034;25.834;2024-02-15T00:16:01;100576.38;;;8.48;89.85
9059;BME280;4564;42.034;25.834;2024-02-15T00:18:28;100572.31;;;8.44;90.04
9059;BME280;4564;42.034;25.834;2024-02-15T00:20:55;100570.50;;;8.53;88.72
9059;BME280;4564;42.034;25.834;2024-02-15T00:23:22;100572.00;;;8.47;88.59
9059;BME280;4564;42.034;25.834;2024-02-15T00:25:50;100576.41;;;8.56;88.30
9059;BME280;4564;42.034;25.834;2024-02-15T00:28:16;100569.47;;;8.46;88.90
9059;BME280;4564;42.034;25.834;2024-02-15T00:30:43;100567.94;;;8.51;89.11
9059;BME280;4564;42.034;25.834;2024-02-15T00:33:10;100560.34;;;8.47;89.18
9059;BME280;4564;42.034;25.834;2024-02-15T00:35:36;100565.56;;;8.40;89.07
9059;BME280;4564;42.034;25.834;2024-02-15T00:38:03;100560.16;;;8.40;89.36
9059;BME280;4564;42.034;25.834;2024-02-15T00:40:30;100564.38;;;8.42;87.85
9059;BME280;4564;42.034;25.834;2024-02-15T00:42:58;100564.16;;;8.28;88.64
9059;BME280;4564;42.034;25.834;2024-02-15T00:45:25;100558.88;;;8.26;88.99
9059;BME280;4564;42.034;25.834;2024-02-15T00:47:51;100559.25;;;8.23;90.29
9059;BME280;4564;42.034;25.834;2024-02-15T00:50:19;100552.28;;;8.21;90.36
9059;BME280;4564;42.034;25.834;2024-02-15T00:52:45;100558.06;;;8.26;89.70
9059;BME280;4564;42.034;25.834;2024-02-15T00:55:12;100559.69;;;8.11;90.05
9059;BME280;4564;42.034;25.834;2024-02-15T00:57:39;100552.94;;;8.07;90.28
9059;BME280;4564;42.034;25.834;2024-02-15T01:00:07;100565.44;;;8.08;90.58
9059;BME280;4564;42.034;25.834;2024-02-15T01:02:35;100552.47;;;8.19;90.25
9059;BME280;4564;42.034;25.834;2024-02-15T01:05:02;100553.13;;;8.13;90.33
9059;BME280;4564;42.034;25.834;2024-02-15T01:07:29;100558.88;;;8.18;90.15
9059;BME280;4564;42.034;25.834;2024-02-15T01:09:55;100562.44;;;8.19;89.85
9059;BME280;4564;42.034;25.834;2024-02-15T01:12:22;100556.88;;;8.20;90.21
9059;BME280;4564;42.034;25.834;2024-02-15T01:14:48;100563.28;;;8.27;90.56
9059;BME280;4564;42.034;25.834;2024-02-15T01:17:17;100562.63;;;8.25;90.42
9059;BME280;4564;42.034;25.834;2024-02-15T01:19:43;100555.34;;;8.18;89.77
9059;BME280;4564;42.034;25.834;2024-02-15T01:22:10;100556.69;;;8.22;89.60
9059;BME280;4564;42.034;25.834;2024-02-15T01:24:38;100548.59;;;8.14;90.04
9059;BME280;4564;42.034;25.834;2024-02-15T01:27:04;100545.56;;;8.25;89.79
9059;BME280;4564;42.034;25.834;2024-02-15T01:29:32;100549.28;;;8.24;89.74
9059;BME280;4564;42.034;25.834;2024-02-15T01:31:59;100555.19;;;8.27;89.56
9059;BME280;4564;42.034;25.834;2024-02-15T01:34:28;100550.97;;;8.25;89.16
9059;BME280;4564;42.034;25.834;2024-02-15T01:36:54;100558.38;;;8.23;89.27
9059;BME280;4564;42.034;25.834;2024-02-15T01:39:21;100556.56;;;8.31;88.58
9059;BME280;4564;42.034;25.834;2024-02-15T01:41:48;100561.59;;;8.18;89.56
9059;BME280;4564;42.034;25.834;2024-02-15T01:44:16;100564.47;;;8.17;89.70
9059;BME280;4564;42.034;25.834;2024-02-15T01:46:45;100564.75;;;8.06;88.72
9059;BME280;4564;42.034;25.834;2024-02-15T01:49:13;100557.31;;;7.99;89.86
9059;BME280;4564;42.034;25.834;2024-02-15T01:51:42;100559.03;;;8.09;90.08
9059;BME280;4564;42.034;25.834;2024-02-15T01:54:09;100558.72;;;8.20;88.97
9059;BME280;4564;42.034;25.834;2024-02-15T01:56:36;100561.75;;;8.09;89.02
9059;BME280;4564;42.034;25.834;2024-02-15T01:59:04;100557.34;;;8.16;89.50
9059;BME280;4564;42.034;25.834;2024-02-15T02:01:31;100561.44;;;8.20;88.40
9059;BME280;4564;42.034;25.834;2024-02-15T02:03:58;100557.34;;;8.16;88.65
9059;BME280;4564;42.034;25.834;2024-02-15T02:06:26;100562.44;;;8.19;88.43
9059;BME280;4564;42.034;25.834;2024-02-15T02:08:54;100556.88;;;8.20;87.66
9059;BME280;4564;42.034;25.834;2024-02-15T02:11:21;100555.69;;;8.15;89.32
9059;BME280;4564;42.034;25.834;2024-02-15T02:13:48;100555.34;;;8.10;88.02
9059;BME280;4564;42.034;25.834;2024-02-15T02:16:24;100561.25;;;8.13;88.32
9059;BME280;4564;42.034;25.834;2024-02-15T02:18:50;100568.00;;;8.09;88.58
9059;BME280;4564;42.034;25.834;2024-02-15T02:21:17;100568.00;;;8.09;88.95
9059;BME280;4564;42.034;25.834;2024-02-15T02:23:44;100564.94;;;8.04;88.37
9059;BME280;4564;42.034;25.834;2024-02-15T02:26:16;100560.34;;;7.96;89.18
9059;BME280;4564;42.034;25.834;2024-02-15T02:28:43;100564.56;;;7.99;89.85
9059;BME280;4564;42.034;25.834;2024-02-15T02:31:09;100571.16;;;8.05;88.55
9059;BME280;4564;42.034;25.834;2024-02-15T02:33:37;100566.09;;;8.01;88.78
9059;BME280;4564;42.034;25.834;2024-02-15T02:36:03;100572.22;;;8.04;89.34
9059;BME280;4564;42.034;25.834;2024-02-15T02:38:32;100575.06;;;8.10;89.78
9059;BME280;4564;42.034;25.834;2024-02-15T02:40:59;100577.56;;;7.95;88.71
9059;BME280;4564;42.034;25.834;2024-02-15T02:43:27;100572.31;;;7.86;89.20
9059;BME280;4564;42.034;25.834;2024-02-15T02:45:53;100576.22;;;7.91;89.01
9059;BME280;4564;42.034;25.834;2024-02-15T02:48:20;100583.31;;;7.92;88.91
9059;BME280;4564;42.034;25.834;2024-02-15T02:50:47;100586.38;;;7.97;89.58
9059;BME280;4564;42.034;25.834;2024-02-15T02:53:14;100585.38;;;8.07;89.11
9059;BME280;4564;42.034;25.834;2024-02-15T02:55:40;100586.72;;;8.11;89.65
9059;BME280;4564;42.034;25.834;2024-02-15T02:58:07;100587.78;;;8.18;88.14
9059;BME280;4564;42.034;25.834;2024-02-15T03:00:35;100592.50;;;8.16;88.36
9059;BME280;4564;42.034;25.834;2024-02-15T03:03:02;100584.53;;;8.06;88.71
9059;BME280;4564;42.034;25.834;2024-02-15T03:05:30;100581.16;;;8.04;89.27
9059;BME280;4564;42.034;25.834;2024-02-15T03:07:57;100588.06;;;7.98;89.70
9059;BME280;4564;42.034;25.834;2024-02-15T03:10:23;100587.72;;;8.01;88.84
9059;BME280;4564;42.034;25.834;2024-02-15T03:12:50;100585.88;;;8.10;88.62
9059;BME280;4564;42.034;25.834;2024-02-15T03:15:17;100593.19;;;8.10;87.32
9059;BME280;4564;42.034;25.834;2024-02-15T03:17:46;100590.78;;;7.98;88.40
9059;BME280;4564;42.034;25.834;2024-02-15T03:20:12;100589.72;;;7.99;89.09
9059;BME280;4564;42.034;25.834;2024-02-15T03:22:47;100577.91;;;8.00;88.54
9059;BME280;4564;42.034;25.834;2024-02-15T03:25:16;100581.63;;;7.99;88.97
9059;BME280;4564;42.034;25.834;2024-02-15T03:27:43;100588.38;;;7.95;87.86
9059;BME280;4564;42.034;25.834;2024-02-15T03:30:10;100580.97;;;7.97;89.13
9059;BME280;4564;42.034;25.834;2024-02-15T03:32:37;100581.13;;;7.96;89.01
9059;BME280;4564;42.034;25.834;2024-02-15T03:35:05;100588.06;;;7.98;89.67
9059;BME280;4564;42.034;25.834;2024-02-15T03:37:32;100591.97;;;8.04;89.81
9059;BME280;4564;42.034;25.834;2024-02-15T03:40:02;100591.44;;;8.00;89.44
9059;BME280;4564;42.034;25.834;2024-02-15T03:42:30;100587.38;;;8.05;88.76
9059;BME280;4564;42.034;25.834;2024-02-15T03:44:56;100588.56;;;8.02;87.87
9059;BME280;4564;42.034;25.834;2024-02-15T03:47:23;100588.06;;;7.98;88.14
9059;BME280;4564;42.034;25.834;2024-02-15T03:49:50;100585.03;;;8.01;89.09
9059;BME280;4564;42.034;25.834;2024-02-15T03:52:18;100583.69;;;8.06;89.10
9059;BME280;4564;42.034;25.834;2024-02-15T03:54:46;100583.69;;;8.06;88.13
9059;BME280;4564;42.034;25.834;2024-02-15T03:57:12;100586.56;;;8.12;88.20
9059;BME280;4564;42.034;25.834;2024-02-15T03:59:42;100589.78;;;8.16;89.02
9059;BME280;4564;42.034;25.834;2024-02-15T04:02:08;100589.63;;;8.09;87.80
9059;BME280;4564;42.034;25.834;2024-02-15T04:04:39;100588.59;;;8.10;87.68
9059;BME280;4564;42.034;25.834;2024-02-15T04:07:07;100583.69;;;8.06;88.22
9059;BME280;4564;42.034;25.834;2024-02-15T04:09:36;100587.38;;;8.05;88.39
9059;BME280;4564;42.034;25.834;2024-02-15T04:12:02;100593.13;;;8.01;88.34
9059;BME280;4564;42.034;25.834;2024-02-15T04:14:29;100586.38;;;7.97;89.08
9059;BME280;4564;42.034;25.834;2024-02-15T04:16:56;100587.38;;;7.96;86.42
9059;BME280;4564;42.034;25.834;2024-02-15T04:19:24;100594.47;;;7.97;86.91
9059;BME280;4564;42.034;25.834;2024-02-15T04:21:50;100593.44;;;7.90;87.50
9059;BME280;4564;42.034;25.834;2024-02-15T04:24:17;100596.47;;;7.87;87.14
9059;BME280;4564;42.034;25.834;2024-02-15T04:26:45;100598.13;;;7.88;86.57
9059;BME280;4564;42.034;25.834;2024-02-15T04:29:13;100597.97;;;7.90;86.39
9059;BME280;4564;42.034;25.834;2024-02-15T04:31:40;100600.16;;;7.86;86.63
9059;BME280;4564;42.034;25.834;2024-02-15T04:34:08;100599.25;;;7.70;86.74
9059;BME280;4564;42.034;25.834;2024-02-15T04:36:36;100599.59;;;7.75;87.51
9059;BME280;4564;42.034;25.834;2024-02-15T04:39:02;100604.50;;;7.71;87.77
9059;BME280;4564;42.034;25.834;2024-02-15T04:41:29;100601.78;;;7.71;86.83
9059;BME280;4564;42.034;25.834;2024-02-15T04:43:57;100603.06;;;7.59;87.34
9059;BME280;4564;42.034;25.834;2024-02-15T04:46:24;100598.31;;;7.53;88.62
9059;BME280;4564;42.034;25.834;2024-02-15T04:48:51;100603.34;;;7.48;88.95
9059;BME280;4564;42.034;25.834;2024-02-15T04:51:17;100611.78;;;7.45;88.28
9059;BME280;4564;42.034;25.834;2024-02-15T04:53:44;100609.00;;;7.37;89.22
9059;BME280;4564;42.034;25.834;2024-02-15T04:56:12;100613.91;;;7.33;89.45
9059;BME280;4564;42.034;25.834;2024-02-15T04:58:39;100612.72;;;7.36;90.74
9059;BME280;4564;42.034;25.834;2024-02-15T05:01:15;100612.03;;;7.34;90.71
9059;BME280;4564;42.034;25.834;2024-02-15T05:03:42;100612.72;;;7.36;91.40
9059;BME280;4564;42.034;25.834;2024-02-15T05:06:08;100606.56;;;7.26;89.88
9059;BME280;4564;42.034;25.834;2024-02-15T05:08:35;100611.97;;;7.26;90.30
9059;BME280;4564;42.034;25.834;2024-02-15T05:11:03;100624.75;;;7.24;91.58
9059;BME280;4564;42.034;25.834;2024-02-15T05:13:31;100616.38;;;7.27;90.39
9059;BME280;4564;42.034;25.834;2024-02-15T05:15:58;100627.31;;;7.25;91.18
9059;BME280;4564;42.034;25.834;2024-02-15T05:18:26;100633.56;;;7.26;91.70
9059;BME280;4564;42.034;25.834;2024-02-15T05:20:53;100632.19;;;7.22;90.96
9059;BME280;4564;42.034;25.834;2024-02-15T05:23:19;100639.28;;;7.23;92.16
9059;BME280;4564;42.034;25.834;2024-02-15T05:25:46;100642.28;;;7.20;91.73
9059;BME280;4564;42.034;25.834;2024-02-15T05:28:13;100643.00;;;7.22;90.06
9059;BME280;4564;42.034;25.834;2024-02-15T05:30:40;100647.59;;;7.29;90.39
9059;BME280;4564;42.034;25.834;2024-02-15T05:33:07;100649.97;;;7.32;89.22
9059;BME280;4564;42.034;25.834;2024-02-15T05:35:37;100653.56;;;7.41;88.33
9059;BME280;4564;42.034;25.834;2024-02-15T05:38:04;100655.59;;;7.39;86.18
9059;BME280;4564;42.034;25.834;2024-02-15T05:40:32;100660.78;;;7.32;86.98
9059;BME280;4564;42.034;25.834;2024-02-15T05:42:58;100659.81;;;7.41;86.47
9059;BME280;4564;42.034;25.834;2024-02-15T05:45:30;100674.25;;;7.50;86.66
9059;BME280;4564;42.034;25.834;2024-02-15T05:47:59;100676.78;;;7.51;85.60
9059;BME280;4564;42.034;25.834;2024-02-15T05:50:26;100672.81;;;7.64;86.66
9059;BME280;4564;42.034;25.834;2024-02-15T05:52:56;100671.19;;;7.71;84.79
9059;BME280;4564;42.034;25.834;2024-02-15T05:55:23;100686.19;;;7.73;84.46
9059;BME280;4564;42.034;25.834;2024-02-15T05:57:52;100683.69;;;7.72;84.40
9059;BME280;4564;42.034;25.834;2024-02-15T06:00:18;100691.44;;;7.75;84.80
9059;BME280;4564;42.034;25.834;2024-02-15T06:02:45;100697.69;;;7.75;84.61
9059;BME280;4564;42.034;25.834;2024-02-15T06:05:12;100696.00;;;7.74;82.57
9059;BME280;4564;42.034;25.834;2024-02-15T06:07:42;100697.06;;;7.81;81.99
9059;BME280;4564;42.034;25.834;2024-02-15T06:10:10;100695.09;;;7.91;82.19
9059;BME280;4564;42.034;25.834;2024-02-15T06:12:37;100702.72;;;7.96;82.43
9059;BME280;4564;42.034;25.834;2024-02-15T06:15:03;100694.75;;;7.94;82.84
9059;BME280;4564;42.034;25.834;2024-02-15T06:17:30;100703.91;;;7.93;81.46
9059;BME280;4564;42.034;25.834;2024-02-15T06:19:57;100704.00;;;8.10;80.90
9059;BME280;4564;42.034;25.834;2024-02-15T06:22:24;100705.00;;;8.17;80.99
9059;BME280;4564;42.034;25.834;2024-02-15T06:24:52;100708.63;;;8.25;79.64
9059;BME280;4564;42.034;25.834;2024-02-15T06:27:20;100709.69;;;8.32;78.67
9059;BME280;4564;42.034;25.834;2024-02-15T06:29:49;100713.03;;;8.68;77.20
9059;BME280;4564;42.034;25.834;2024-02-15T06:32:34;100711.91;;;8.95;75.92
9059;BME280;4564;42.034;25.834;2024-02-15T06:35:17;100724.47;;;9.20;74.80
9059;BME280;4564;42.034;25.834;2024-02-15T06:38:01;100723.28;;;9.31;75.11
9059;BME280;4564;42.034;25.834;2024-02-15T06:40:48;100726.00;;;9.23;74.31
9059;BME280;4564;42.034;25.834;2024-02-15T06:43:16;100727.34;;;9.27;73.88
9059;BME280;4564;42.034;25.834;2024-02-15T06:45:42;100733.44;;;9.29;73.26
9059;BME280;4564;42.034;25.834;2024-02-15T06:48:11;100733.94;;;9.41;74.60
9059;BME280;4564;42.034;25.834;2024-02-15T06:50:38;100740.22;;;9.57;73.75
9059;BME280;4564;42.034;25.834;2024-02-15T06:53:05;100737.22;;;10.16;71.85
9059;BME280;4564;42.034;25.834;2024-02-15T06:55:32;100726.34;;;10.40;69.71
9059;BME280;4564;42.034;25.834;2024-02-15T06:57:59;100732.09;;;10.45;68.60
9059;BME280;4564;42.034;25.834;2024-02-15T07:00:27;100724.72;;;10.23;69.37
9059;BME280;4564;42.034;25.834;2024-02-15T07:02:56;100726.25;;;10.17;69.85
9059;BME280;4564;42.034;25.834;2024-02-15T07:05:22;100729.59;;;10.35;68.23
9059;BME280;4564;42.034;25.834;2024-02-15T07:07:49;100724.28;;;10.42;72.21
9059;BME280;4564;42.034;25.834;2024-02-15T07:10:16;100730.06;;;10.78;72.45
9059;BME280;4564;42.034;25.834;2024-02-15T07:12:43;100733.34;;;10.96;71.65
9059;BME280;4564;42.034;25.834;2024-02-15T07:15:10;100729.63;;;10.97;70.88
9059;BME280;4564;42.034;25.834;2024-02-15T07:17:38;100734.69;;;11.00;71.45
9059;BME280;4564;42.034;25.834;2024-02-15T07:20:05;100733.25;;;11.12;71.57
9059;BME280;4564;42.034;25.834;2024-02-15T07:22:32;100740.03;;;11.16;69.99
9059;BME280;4564;42.034;25.834;2024-02-15T07:24:59;100741.16;;;10.99;70.07
9059;BME280;4564;42.034;25.834;2024-02-15T07:27:25;100741.41;;;10.81;69.67
9059;BME280;4564;42.034;25.834;2024-02-15T07:29:52;100740.56;;;10.81;70.39
9059;BME280;4564;42.034;25.834;2024-02-15T07:32:19;100733.22;;;10.59;69.95
9059;BME280;4564;42.034;25.834;2024-02-15T07:34:47;100731.47;;;10.27;68.99
9059;BME280;4564;42.034;25.834;2024-02-15T07:37:15;100734.34;;;10.33;71.54
9059;BME280;4564;42.034;25.834;2024-02-15T07:39:41;100735.13;;;10.42;69.91
9059;BME280;4564;42.034;25.834;2024-02-15T07:42:08;100740.81;;;10.24;68.25
9059;BME280;4564;42.034;25.834;2024-02-15T07:44:34;100729.91;;;10.40;68.78
9059;BME280;4564;42.034;25.834;2024-02-15T07:47:01;100734.88;;;10.68;69.02
9059;BME280;4564;42.034;25.834;2024-02-15T07:49:29;100738.88;;;10.80;66.30
9059;BME280;4564;42.034;25.834;2024-02-15T07:51:57;100732.88;;;10.92;67.65
9059;BME280;4564;42.034;25.834;2024-02-15T07:54:25;100737.00;;;11.11;66.85
9059;BME280;4564;42.034;25.834;2024-02-15T07:56:53;100736.41;;;11.24;66.84
9059;BME280;4564;42.034;25.834;2024-02-15T07:59:20;100728.06;;;11.25;65.49
9059;BME280;4564;42.034;25.834;2024-02-15T08:01:47;100737.28;;;11.39;66.28
9059;BME280;4564;42.034;25.834;2024-02-15T08:04:15;100735.63;;;11.38;63.79
9059;BME280;4564;42.034;25.834;2024-02-15T08:06:42;100736.66;;;11.37;64.71
9059;BME280;4564;42.034;25.834;2024-02-15T08:09:10;100732.78;;;11.31;63.01
9059;BME280;4564;42.034;25.834;2024-02-15T08:11:38;100718.53;;;11.29;63.06
9059;BME280;4564;42.034;25.834;2024-02-15T08:14:06;100724.84;;;10.99;63.23
9059;BME280;4564;42.034;25.834;2024-02-15T08:16:35;100723.41;;;10.88;63.70
9059;BME280;4564;42.034;25.834;2024-02-15T08:19:02;100714.88;;;10.91;63.39
9059;BME280;4564;42.034;25.834;2024-02-15T08:21:31;100713.44;;;11.04;62.52
9059;BME280;4564;42.034;25.834;2024-02-15T08:23:58;100706.16;;;11.04;64.76
9059;BME280;4564;42.034;25.834;2024-02-15T08:26:26;100709.84;;;11.11;63.19
9059;BME280;4564;42.034;25.834;2024-02-15T08:28:55;100710.69;;;11.12;62.31
9059;BME280;4564;42.034;25.834;2024-02-15T08:31:22;100712.91;;;11.08;60.41
9059;BME280;4564;42.034;25.834;2024-02-15T08:33:48;100714.44;;;11.11;62.01
9059;BME280;4564;42.034;25.834;2024-02-15T08:36:15;100705.88;;;11.22;60.23
9059;BME280;4564;42.034;25.834;2024-02-15T08:38:42;100710.78;;;11.18;60.29
9059;BME280;4564;42.034;25.834;2024-02-15T08:41:09;100716.13;;;11.12;60.42
9059;BME280;4564;42.034;25.834;2024-02-15T08:43:39;100708.16;;;11.10;61.19
9059;BME280;4564;42.034;25.834;2024-02-15T08:46:07;100705.19;;;11.20;60.64
9059;BME280;4564;42.034;25.834;2024-02-15T08:48:34;100704.88;;;11.15;61.28
9059;BME280;4564;42.034;25.834;2024-02-15T08:51:01;100715.81;;;11.29;61.11
9059;BME280;4564;42.034;25.834;2024-02-15T08:53:27;100709.09;;;11.40;59.96
9059;BME280;4564;42.034;25.834;2024-02-15T08:55:54;100709.88;;;11.49;60.75
9059;BME280;4564;42.034;25.834;2024-02-15T08:58:21;100718.09;;;11.41;60.11
9059;BME280;4564;42.034;25.834;2024-02-15T09:00:49;100713.09;;;11.29;60.60
9059;BME280;4564;42.034;25.834;2024-02-15T09:03:15;100718.22;;;11.24;60.86
9059;BME280;4564;42.034;25.834;2024-02-15T09:05:43;100725.09;;;11.35;60.62
9059;BME280;4564;42.034;25.834;2024-02-15T09:08:10;100715.47;;;11.70;59.60
9059;BME280;4564;42.034;25.834;2024-02-15T09:10:36;100704.94;;;11.90;58.79
9059;BME280;4564;42.034;25.834;2024-02-15T09:13:04;100710.38;;;11.90;57.16
9059;BME280;4564;42.034;25.834;2024-02-15T09:15:31;100712.34;;;11.81;57.91
9059;BME280;4564;42.034;25.834;2024-02-15T09:17:59;100704.66;;;11.99;58.28
9059;BME280;4564;42.034;25.834;2024-02-15T09:20:26;100707.03;;;12.17;59.34
9059;BME280;4564;42.034;25.834;2024-02-15T09:22:53;100699.88;;;12.01;56.66
9059;BME280;4564;42.034;25.834;2024-02-15T09:25:21;100700.34;;;11.67;57.42
9059;BME280;4564;42.034;25.834;2024-02-15T09:27:49;100696.16;;;11.65;59.47
9059;BME280;4564;42.034;25.834;2024-02-15T09:30:15;100697.09;;;11.72;58.52
9059;BME280;4564;42.034;25.834;2024-02-15T09:32:42;100691.06;;;11.62;57.79
9059;BME280;4564;42.034;25.834;2024-02-15T09:35:11;100692.47;;;11.58;58.10
9059;BME280;4564;42.034;25.834;2024-02-15T09:37:42;100692.19;;;11.75;57.77
9059;BME280;4564;42.034;25.834;2024-02-15T09:40:09;100694.88;;;11.75;58.06
9059;BME280;4564;42.034;25.834;2024-02-15T09:42:37;100687.13;;;11.87;57.02
9059;BME280;4564;42.034;25.834;2024-02-15T09:45:05;100685.63;;;11.85;56.43
9059;BME280;4564;42.034;25.834;2024-02-15T09:47:33;100674.56;;;12.01;56.48
9059;BME280;4564;42.034;25.834;2024-02-15T09:50:00;100678.00;;;12.09;56.03
9059;BME280;4564;42.034;25.834;2024-02-15T09:52:29;100676.34;;;12.08;56.85
9059;BME280;4564;42.034;25.834;2024-02-15T09:54:57;100679.16;;;12.00;57.45
9059;BME280;4564;42.034;25.834;2024-02-15T09:57:25;100678.75;;;12.33;56.09
9059;BME280;4564;42.034;25.834;2024-02-15T09:59:52;100681.50;;;12.33;55.95
9059;BME280;4564;42.034;25.834;2024-02-15T10:02:20;100674.47;;;12.24;56.91
9059;BME280;4564;42.034;25.834;2024-02-15T10:04:46;100679.28;;;12.72;56.68
9059;BME280;4564;42.034;25.834;2024-02-15T10:07:13;100674.75;;;12.79;55.67
9059;BME280;4564;42.034;25.834;2024-02-15T10:09:41;100669.69;;;12.97;53.55
9059;BME280;4564;42.034;25.834;2024-02-15T10:12:08;100674.72;;;13.15;53.22
9059;BME280;4564;42.034;25.834;2024-02-15T10:14:35;100677.69;;;12.63;52.67
9059;BME280;4564;42.034;25.834;2024-02-15T10:17:05;100670.66;;;12.54;54.59
9059;BME280;4564;42.034;25.834;2024-02-15T10:19:34;100668.41;;;12.57;54.32
9059;BME280;4564;42.034;25.834;2024-02-15T10:22:05;100667.81;;;12.98;53.45
9059;BME280;4564;42.034;25.834;2024-02-15T10:24:32;100662.88;;;13.08;52.96
9059;BME280;4564;42.034;25.834;2024-02-15T10:27:01;100658.94;;;12.89;53.54
9059;BME280;4564;42.034;25.834;2024-02-15T10:29:29;100663.06;;;12.49;53.00
9059;BME280;4564;42.034;25.834;2024-02-15T10:31:57;100658.56;;;12.42;54.43
9059;BME280;4564;42.034;25.834;2024-02-15T10:34:24;100660.66;;;12.40;54.45
9059;BME280;4564;42.034;25.834;2024-02-15T10:36:52;100650.28;;;12.14;54.76
9059;BME280;4564;42.034;25.834;2024-02-15T10:39:21;100654.19;;;12.11;55.56
9059;BME280;4564;42.034;25.834;2024-02-15T10:41:49;100658.13;;;12.24;54.23
9059;BME280;4564;42.034;25.834;2024-02-15T10:44:19;100657.31;;;12.08;54.53
9059;BME280;4564;42.034;25.834;2024-02-15T10:46:46;100646.13;;;11.74;55.46
9059;BME280;4564;42.034;25.834;2024-02-15T10:49:19;100639.00;;;11.88;56.00
9059;BME280;4564;42.034;25.834;2024-02-15T10:51:49;100654.66;;;12.00;56.38
9059;BME280;4564;42.034;25.834;2024-02-15T10:54:19;100646.72;;;12.13;55.00
9059;BME280;4564;42.034;25.834;2024-02-15T10:56:47;100638.63;;;12.05;54.02
9059;BME280;4564;42.034;25.834;2024-02-15T10:59:23;100637.56;;;12.21;56.27
9059;BME280;4564;42.034;25.834;2024-02-15T11:01:54;100639.19;;;12.30;54.60
9059;BME280;4564;42.034;25.834;2024-02-15T11:04:24;100640.03;;;12.16;55.47
9059;BME280;4564;42.034;25.834;2024-02-15T11:06:56;100639.66;;;11.90;54.49
9059;BME280;4564;42.034;25.834;2024-02-15T11:09:25;100630.31;;;11.92;54.36
9059;BME280;4564;42.034;25.834;2024-02-15T11:11:52;100630.38;;;11.99;55.91
9059;BME280;4564;42.034;25.834;2024-02-15T11:14:27;100624.13;;;11.98;55.59
9059;BME280;4564;42.034;25.834;2024-02-15T11:16:55;100620.16;;;11.86;57.02
9059;BME280;4564;42.034;25.834;2024-02-15T11:19:42;100618.56;;;11.77;55.29
9059;BME280;4564;42.034;25.834;2024-02-15T11:22:12;100616.22;;;11.74;56.16
9059;BME280;4564;42.034;25.834;2024-02-15T11:24:49;100609.94;;;11.88;56.32
9059;BME280;4564;42.034;25.834;2024-02-15T11:27:26;100615.00;;;11.91;55.40
9059;BME280;4564;42.034;25.834;2024-02-15T11:29:55;100615.00;;;11.91;55.80
9059;BME280;4564;42.034;25.834;2024-02-15T11:32:39;100614.59;;;12.24;54.70
9059;BME280;4564;42.034;25.834;2024-02-15T11:35:05;100613.84;;;12.30;53.48
9059;BME280;4564;42.034;25.834;2024-02-15T11:40:29;100608.06;;;12.75;53.64
9059;BME280;4564;42.034;25.834;2024-02-15T11:46:00;100620.81;;;12.17;54.20
9059;BME280;4564;42.034;25.834;2024-02-15T11:48:28;100611.13;;;12.15;54.78
9059;BME280;4564;42.034;25.834;2024-02-15T11:50:55;100617.69;;;12.35;54.68
9059;BME280;4564;42.034;25.834;2024-02-15T11:53:21;100617.47;;;12.51;53.32
9059;BME280;4564;42.034;25.834;2024-02-15T11:55:49;100608.97;;;12.61;53.21
9059;BME280;4564;42.034;25.834;2024-02-15T11:58:16;100610.41;;;12.78;53.09
9059;BME280;4564;42.034;25.834;2024-02-15T12:00:47;100603.97;;;12.86;52.44
9059;BME280;4564;42.034;25.834;2024-02-15T12:03:32;100603.34;;;13.05;52.67
9059;BME280;4564;42.034;25.834;2024-02-15T12:06:17;100600.97;;;13.17;53.48
9059;BME280;4564;42.034;25.834;2024-02-15T12:09:01;100589.22;;;13.16;51.52
9059;BME280;4564;42.034;25.834;2024-02-15T12:11:45;100582.13;;;13.22;51.08
9059;BME280;4564;42.034;25.834;2024-02-15T12:14:29;100592.56;;;13.18;50.57
9059;BME280;4564;42.034;25.834;2024-02-15T12:17:13;100586.69;;;13.15;52.10
9059;BME280;4564;42.034;25.834;2024-02-15T12:20:00;100592.53;;;13.12;50.48
9059;BME280;4564;42.034;25.834;2024-02-15T12:22:32;100583.03;;;13.08;50.90
9059;BME280;4564;42.034;25.834;2024-02-15T12:25:00;100590.50;;;13.20;51.18
9059;BME280;4564;42.034;25.834;2024-02-15T12:27:26;100587.00;;;13.54;50.55
9059;BME280;4564;42.034;25.834;2024-02-15T12:29:54;100584.50;;;13.59;49.66
9059;BME280;4564;42.034;25.834;2024-02-15T12:32:21;100580.75;;;13.67;50.01
9059;BME280;4564;42.034;25.834;2024-02-15T12:34:48;100589.72;;;13.88;49.80
9059;BME280;4564;42.034;25.834;2024-02-15T12:37:18;100575.22;;;13.81;48.50
9059;BME280;4564;42.034;25.834;2024-02-15T12:39:47;100576.81;;;13.69;48.96
9059;BME280;4564;42.034;25.834;2024-02-15T12:42:14;100586.16;;;13.54;49.24
9059;BME280;4564;42.034;25.834;2024-02-15T12:44:42;100574.53;;;13.45;48.71
9059;BME280;4564;42.034;25.834;2024-02-15T12:47:16;100570.03;;;13.59;50.18
9059;BME280;4564;42.034;25.834;2024-02-15T12:49:43;100562.28;;;13.62;49.95
9059;BME280;4564;42.034;25.834;2024-02-15T12:55:07;100565.84;;;13.97;48.72
9059;BME280;4564;42.034;25.834;2024-02-15T12:57:34;100564.97;;;13.90;49.34
9059;BME280;4564;42.034;25.834;2024-02-15T13:00:02;100580.81;;;13.73;48.67
9059;BME280;4564;42.034;25.834;2024-02-15T13:02:36;100571.59;;;13.74;49.37
9059;BME280;4564;42.034;25.834;2024-02-15T13:05:03;100562.69;;;13.59;49.81
9059;BME280;4564;42.034;25.834;2024-02-15T13:07:29;100563.44;;;13.47;49.76
9059;BME280;4564;42.034;25.834;2024-02-15T13:09:56;100566.91;;;13.34;50.21
9059;BME280;4564;42.034;25.834;2024-02-15T13:12:24;100569.94;;;13.18;50.63
9059;BME280;4564;42.034;25.834;2024-02-15T13:14:53;100566.16;;;13.19;51.51
9059;BME280;4564;42.034;25.834;2024-02-15T13:17:20;100554.88;;;13.22;51.29
9059;BME280;4564;42.034;25.834;2024-02-15T13:19:47;100564.09;;;13.21;52.12